Time,TemperatureF,DewpointF,PressureIn,WindDirection,WindDirectionDegrees,WindSpeedMPH,WindSpeedGustMPH,Humidity,HourlyPrecipIn,Conditions,Clouds,dailyrainin,SoftwareType,DateUTC
2013-01-19 00:08:00,26.6,22.5,29.76,WSW,244,2.0,4.9,84,0.00,,,-99.99,FreeWX-Wi 1.01,2013-01-19 06:08:00,
2013-01-19 00:18:00,26.8,22.6,29.76,SW,221,2.0,3.1,84,0.00,,,-99.99,FreeWX-Wi 1.01,2013-01-19 06:18:00,
2013-01-19 00:28:00,27.3,23.4,29.76,SSW,199,2.0,3.6,85,0.00,,,-99.99,FreeWX-Wi 1.01,2013-01-19 06:28:00,
2013-01-19 00:38:00,27.1,23.5,29.76,SSW,197,2.0,3.1,86,0.00,,,-99.99,FreeWX-Wi 1.01,2013-01-19 06:38:00,
2013-01-19 00:48:00,27.0,23.4,29.76,SSW,197,1.0,3.1,86,0.00,,,-99.99,FreeWX-Wi 1.01,2013-01-19 06:48:00,
2013-01-19 00:58:00,26.8,23.2,29.76,SSW,197,1.0,3.1,86,0.00,,,-99.99,FreeWX-Wi 1.01,2013-01-19 06:58:00,
2013-01-19 01:08:00,26.4,22.8,29.76,SSW,197,1.0,2.7,86,0.00,,,-99.99,FreeWX-Wi 1.01,2013-01-19 07:08:00,
2013-01-19 01:18:00,26.1,22.5,29.74,North,-999,0.0,2.7,86,0.00,,,-99.99,FreeWX-Wi 1.01,2013-01-19 07:18:00,
2013-01-19 01:28:00,25.7,22.1,29.74,North,-999,0.0,0.0,86,0.00,,,-99.99,FreeWX-Wi 1.01,2013-01-19 07:28:00,
2013-01-19 01:38:00,25.5,21.9,29.74,North,-999,0.0,3.6,86,0.00,,,-99.99,FreeWX-Wi 1.01,2013-01-19 07:38:00,
2013-01-19 01:48:00,25.3,21.7,29.74,North,-999,0.0,3.6,86,0.00,,,-99.99,FreeWX-Wi 1.01,2013-01-19 07:48:00,
2013-01-19 01:58:00,25.2,21.6,29.74,SSW,197,1.0,3.1,86,0.00,,,-99.99,FreeWX-Wi 1.01,2013-01-19 07:58:00,
2013-01-19 02:08:00,25.3,21.7,29.74,SSW,197,1.0,2.7,86,0.00,,,-99.99,FreeWX-Wi 1.01,2013-01-19 08:08:00,
2013-01-19 02:18:00,25.7,22.5,29.76,SSW,197,2.0,4.9,87,0.00,,,-99.99,FreeWX-Wi 1.01,2013-01-19 08:18:00,
2013-01-19 02:28:00,26.2,23.2,29.76,SSW,196,2.0,5.4,88,0.00,,,-99.99,FreeWX-Wi 1.01,2013-01-19 08:28:00,
2013-01-19 02:38:00,26.8,23.7,29.76,SSW,196,3.0,4.5,88,0.00,,,-99.99,FreeWX-Wi 1.01,2013-01-19 08:38:00,
2013-01-19 02:48:00,27.3,24.8,29.74,SSW,194,3.0,4.9,90,0.00,,,-99.99,FreeWX-Wi 1.01,2013-01-19 08:48:00,
2013-01-19 02:58:00,27.5,25.2,29.74,SSW,192,2.0,4.0,91,0.00,,,-99.99,FreeWX-Wi 1.01,2013-01-19 08:58:00,
2013-01-19 03:08:00,27.7,25.3,29.74,South,190,1.0,3.6,91,0.00,,,-99.99,FreeWX-Wi 1.01,2013-01-19 09:08:00,
2013-01-19 03:18:00,28.0,26.2,29.74,South,189,1.0,4.0,93,0.00,,,-99.99,FreeWX-Wi 1.01,2013-01-19 09:18:00,
2013-01-19 03:28:00,28.2,27.0,29.74,SSW,193,2.0,5.8,95,0.00,,,-99.99,FreeWX-Wi 1.01,2013-01-19 09:28:00,
2013-01-19 03:38:00,28.2,27.1,29.74,SSW,197,3.0,5.8,96,0.00,,,-99.99,FreeWX-Wi 1.01,2013-01-19 09:38:00,
2013-01-19 03:48:00,28.0,27.3,29.71,SSW,199,4.0,5.8,97,0.00,,,-99.99,FreeWX-Wi 1.01,2013-01-19 09:48:00,
2013-01-19 03:58:00,28.4,28.4,29.71,SSW,196,4.0,5.8,100,0.00,,,-99.99,FreeWX-Wi 1.01,2013-01-19 09:58:00,
2013-01-19 04:08:00,28.6,28.6,29.71,SSW,195,4.0,5.8,100,0.00,,,-99.99,FreeWX-Wi 1.01,2013-01-19 10:08:00,
2013-01-19 04:18:00,28.6,28.6,29.71,SSW,196,4.0,5.8,100,0.00,,,-99.99,FreeWX-Wi 1.01,2013-01-19 10:18:00,
2013-01-19 04:28:00,28.8,28.8,29.71,SSW,194,4.0,5.8,100,0.00,,,-99.99,FreeWX-Wi 1.01,2013-01-19 10:28:00,
2013-01-19 04:38:00,28.9,28.9,29.71,SSW,198,4.0,7.2,100,0.00,,,-99.99,FreeWX-Wi 1.01,2013-01-19 10:38:00,
2013-01-19 04:48:00,29.3,29.3,29.68,SSW,196,5.0,6.7,100,0.00,,,-99.99,FreeWX-Wi 1.01,2013-01-19 10:48:00,
2013-01-19 04:58:00,29.7,29.7,29.68,SSW,201,4.0,6.3,100,0.00,,,-99.99,FreeWX-Wi 1.01,2013-01-19 10:58:00,
2013-01-19 05:08:00,30.2,30.2,29.68,SSW,211,4.0,6.3,100,0.00,,,-99.99,FreeWX-Wi 1.01,2013-01-19 11:08:00,
2013-01-19 06:52:00,28.4,27.3,29.71,WSW,254,4.0,5.8,96,0.00,,,-99.99,FreeWX-Wi 1.01,2013-01-19 12:52:00,
2013-01-19 07:02:00,29.3,28.2,29.68,WSW,256,4.0,8.3,96,0.00,,,-99.99,FreeWX-Wi 1.01,2013-01-19 13:02:00,
2013-01-19 07:12:00,30.0,28.9,29.68,WSW,256,5.0,7.6,96,0.00,,,-99.99,FreeWX-Wi 1.01,2013-01-19 13:12:00,
2013-01-19 07:22:00,30.4,28.9,29.68,WSW,255,5.0,7.6,94,0.00,,,-99.99,FreeWX-Wi 1.01,2013-01-19 13:22:00,
2013-01-19 07:42:00,30.2,27.9,29.71,West,261,5.0,6.3,91,0.00,,,-99.99,FreeWX-Wi 1.01,2013-01-19 13:42:00,
2013-01-19 07:52:00,30.6,28.0,29.71,West,265,4.0,7.6,90,0.00,,,-99.99,FreeWX-Wi 1.01,2013-01-19 13:52:00,
2013-01-19 08:02:00,30.7,27.9,29.71,West,269,4.0,8.3,89,0.00,,,-99.99,FreeWX-Wi 1.01,2013-01-19 14:02:00,
2013-01-19 08:12:00,30.9,27.9,29.71,West,272,4.0,9.2,88,0.00,,,-99.99,FreeWX-Wi 1.01,2013-01-19 14:12:00,
2013-01-19 08:22:00,30.9,27.5,29.71,West,276,4.0,8.7,87,0.00,,,-99.99,FreeWX-Wi 1.01,2013-01-19 14:22:00,
2013-01-19 08:32:00,30.9,27.3,29.71,West,278,4.0,11.0,86,0.00,,,-99.99,FreeWX-Wi 1.01,2013-01-19 14:32:00,
2013-01-19 08:42:00,31.3,27.5,29.71,West,279,4.0,8.7,86,0.00,,,-99.99,FreeWX-Wi 1.01,2013-01-19 14:42:00,
2013-01-19 08:52:00,31.5,27.5,29.74,West,279,4.0,8.3,85,0.00,,,-99.99,FreeWX-Wi 1.01,2013-01-19 14:52:00,
2013-01-19 09:02:00,31.8,27.5,29.74,West,276,4.0,8.1,84,0.00,,,-99.99,FreeWX-Wi 1.01,2013-01-19 15:02:00,
2013-01-19 09:12:00,32.2,27.9,29.74,West,277,4.0,8.3,84,0.00,,,-99.99,FreeWX-Wi 1.01,2013-01-19 15:12:00,
2013-01-19 09:22:00,32.5,28.0,29.74,West,279,4.0,10.5,83,0.00,,,-99.99,FreeWX-Wi 1.01,2013-01-19 15:22:00,
2013-01-19 09:32:00,32.9,27.7,29.74,WNW,284,4.0,10.1,81,0.00,,,-99.99,FreeWX-Wi 1.01,2013-01-19 15:32:00,
2013-01-19 09:42:00,33.3,27.5,29.74,WNW,286,5.0,10.1,79,0.00,,,-99.99,FreeWX-Wi 1.01,2013-01-19 15:42:00,
2013-01-19 09:52:00,33.4,27.3,29.74,WNW,286,5.0,8.7,78,0.00,,,-99.99,FreeWX-Wi 1.01,2013-01-19 15:52:00,
2013-01-19 10:02:00,33.8,27.1,29.74,WNW,286,5.0,8.7,76,0.00,,,-99.99,FreeWX-Wi 1.01,2013-01-19 16:02:00,
2013-01-19 10:12:00,34.0,26.6,29.74,WNW,286,4.0,7.6,74,0.00,,,-99.99,FreeWX-Wi 1.01,2013-01-19 16:12:00,
2013-01-19 10:22:00,34.3,27.0,29.74,WNW,288,4.0,8.3,74,0.00,,,-99.99,FreeWX-Wi 1.01,2013-01-19 16:22:00,
2013-01-19 10:46:00,34.7,25.9,29.76,WNW,293,5.0,10.5,70,0.00,,,-99.99,FreeWX-Wi 1.01,2013-01-19 16:46:00,
2013-01-19 10:56:00,35.1,25.9,29.76,WNW,293,6.0,10.1,69,0.00,,,-99.99,FreeWX-Wi 1.01,2013-01-19 16:56:00,
2013-01-19 11:06:00,35.4,25.9,29.76,WNW,294,6.0,10.5,68,0.00,,,-99.99,FreeWX-Wi 1.01,2013-01-19 17:06:00,
2013-01-19 11:16:00,35.8,25.9,29.76,WNW,295,5.0,11.0,67,0.00,,,-99.99,FreeWX-Wi 1.01,2013-01-19 17:16:00,
2013-01-19 11:26:00,36.1,25.9,29.76,WNW,292,5.0,8.3,66,0.00,,,-99.99,FreeWX-Wi 1.01,2013-01-19 17:26:00,
2013-01-19 11:47:00,36.5,26.6,29.76,WNW,288,4.0,6.3,67,0.00,,,-99.99,FreeWX-Wi 1.01,2013-01-19 17:47:00,
2013-01-19 11:57:00,37.2,25.9,29.76,WNW,290,5.0,12.8,63,0.00,,,-99.99,FreeWX-Wi 1.01,2013-01-19 17:57:00,
2013-01-19 12:07:00,37.6,26.1,29.76,WNW,290,5.0,12.8,63,0.00,,,-99.99,FreeWX-Wi 1.01,2013-01-19 18:07:00,
2013-01-19 12:27:00,38.1,25.2,29.76,WNW,291,6.0,11.4,59,0.00,,,-99.99,FreeWX-Wi 1.01,2013-01-19 18:27:00,
2013-01-19 12:37:00,38.3,25.7,29.76,WNW,290,6.0,8.3,60,0.00,,,-99.99,FreeWX-Wi 1.01,2013-01-19 18:37:00,
2013-01-19 12:47:00,38.7,26.1,29.76,WNW,286,6.0,12.3,60,0.00,,,-99.99,FreeWX-Wi 1.01,2013-01-19 18:47:00,
2013-01-19 12:57:00,38.1,24.6,29.76,WNW,282,6.0,15.4,58,0.00,,,-99.99,FreeWX-Wi 1.01,2013-01-19 18:57:00,
2013-01-19 13:07:00,37.9,25.0,29.76,West,280,6.0,11.9,59,0.00,,,-99.99,FreeWX-Wi 1.01,2013-01-19 19:07:00,
2013-01-19 13:17:00,37.4,24.4,29.76,West,278,6.0,17.4,59,0.00,,,-99.99,FreeWX-Wi 1.01,2013-01-19 19:17:00,
2013-01-19 13:37:00,36.7,25.0,29.76,WNW,282,6.0,10.5,62,0.00,,,-99.99,FreeWX-Wi 1.01,2013-01-19 19:37:00,
2013-01-19 13:47:00,36.7,25.3,29.76,WNW,285,7.0,17.0,63,0.00,,,-99.99,FreeWX-Wi 1.01,2013-01-19 19:47:00,
2013-01-19 13:57:00,36.7,25.0,29.76,WNW,288,7.0,15.4,62,0.00,,,-99.99,FreeWX-Wi 1.01,2013-01-19 19:57:00,
2013-01-19 14:39:00,31.1,16.3,29.79,WNW,299,8.0,23.3,54,0.00,,,-99.99,FreeWX-Wi 1.01,2013-01-19 20:39:00,
2013-01-19 14:59:00,28.4,9.3,29.85,NW,307,8.0,19.2,44,0.00,,,-99.99,FreeWX-Wi 1.01,2013-01-19 20:59:00,
2013-01-19 15:09:00,26.2,6.8,29.85,NW,306,9.0,17.4,43,0.00,,,-99.99,FreeWX-Wi 1.01,2013-01-19 21:09:00,
2013-01-19 15:19:00,25.2,5.4,29.85,WNW,300,10.0,16.8,42,0.00,,,-99.99,FreeWX-Wi 1.01,2013-01-19 21:19:00,
2013-01-19 15:29:00,24.1,4.3,29.88,WNW,302,9.0,15.0,42,0.00,,,-99.99,FreeWX-Wi 1.01,2013-01-19 21:29:00,
2013-01-19 15:39:00,22.1,2.1,29.88,NW,306,9.0,17.4,41,0.00,,,-99.99,FreeWX-Wi 1.01,2013-01-19 21:39:00,
2013-01-19 15:49:00,21.2,2.3,29.91,NW,312,8.0,14.5,43,0.00,,,-99.99,FreeWX-Wi 1.01,2013-01-19 21:49:00,
2013-01-19 15:59:00,20.1,1.2,29.91,NW,312,9.0,19.2,43,0.00,,,-99.99,FreeWX-Wi 1.01,2013-01-19 21:59:00,
2013-01-19 16:09:00,19.4,1.0,29.91,NW,309,9.0,17.4,44,0.00,,,-99.99,FreeWX-Wi 1.01,2013-01-19 22:09:00,
2013-01-19 16:19:00,19.4,1.0,29.94,NW,304,8.0,15.4,44,0.00,,,-99.99,FreeWX-Wi 1.01,2013-01-19 22:19:00,
2013-01-19 16:29:00,19.0,0.7,29.94,WNW,303,8.0,14.1,44,0.00,,,-99.99,FreeWX-Wi 1.01,2013-01-19 22:29:00,
2013-01-19 16:40:00,18.1,-0.6,29.94,NW,306,7.0,14.5,43,0.00,,,-99.99,FreeWX-Wi 1.01,2013-01-19 22:40:00,
2013-01-19 16:50:00,16.5,-2.6,29.97,NW,305,8.0,17.0,42,0.00,,,-99.99,FreeWX-Wi 1.01,2013-01-19 22:50:00,
2013-01-19 17:00:00,14.9,-4.0,29.97,NW,304,9.0,21.9,42,0.00,,,-99.99,FreeWX-Wi 1.01,2013-01-19 23:00:00,
2013-01-19 17:20:00,12.6,-5.6,30.00,NW,304,8.0,14.5,43,0.00,,,-99.99,FreeWX-Wi 1.01,2013-01-19 23:20:00,
2013-01-19 17:40:00,11.1,-6.9,30.00,NW,304,8.0,15.4,43,0.00,,,-99.99,FreeWX-Wi 1.01,2013-01-19 23:40:00,
2013-01-19 18:01:00,9.7,-8.3,30.03,WNW,301,10.0,15.0,43,0.00,,,-99.99,FreeWX-Wi 1.01,2013-01-20 00:01:00,
2013-01-19 18:32:00,8.2,-9.6,30.06,NW,307,7.0,12.3,43,0.00,,,-99.99,FreeWX-Wi 1.01,2013-01-20 00:32:00,
2013-01-19 18:42:00,7.7,-10.1,30.06,NW,308,7.0,19.2,43,0.00,,,-99.99,FreeWX-Wi 1.01,2013-01-20 00:42:00,
2013-01-19 18:52:00,7.2,-10.7,30.09,NW,308,8.0,17.4,43,0.00,,,-99.99,FreeWX-Wi 1.01,2013-01-20 00:52:00,
2013-01-19 19:12:00,6.3,-11.4,30.09,NW,310,7.0,11.0,43,0.00,,,-99.99,FreeWX-Wi 1.01,2013-01-20 01:12:00,
2013-01-19 19:22:00,5.9,-11.7,30.09,NW,305,7.0,20.1,43,0.00,,,-99.99,FreeWX-Wi 1.01,2013-01-20 01:22:00,
2013-01-19 19:42:00,5.4,-12.3,30.12,NW,306,7.0,15.0,43,0.00,,,-99.99,FreeWX-Wi 1.01,2013-01-20 01:42:00,
2013-01-19 19:52:00,5.0,-12.5,30.12,NW,306,7.0,12.3,43,0.00,,,-99.99,FreeWX-Wi 1.01,2013-01-20 01:52:00,
2013-01-19 20:13:00,4.3,-13.2,30.15,WNW,302,5.0,13.2,43,0.00,,,-99.99,FreeWX-Wi 1.01,2013-01-20 02:13:00,
2013-01-19 20:23:00,3.9,-13.5,30.15,NW,307,6.0,14.5,43,0.00,,,-99.99,FreeWX-Wi 1.01,2013-01-20 02:23:00,
2013-01-19 20:33:00,3.6,-13.9,30.15,NW,310,6.0,11.0,43,0.00,,,-99.99,FreeWX-Wi 1.01,2013-01-20 02:33:00,
2013-01-19 20:43:00,3.0,-14.4,30.18,NW,311,7.0,13.2,43,0.00,,,-99.99,FreeWX-Wi 1.01,2013-01-20 02:43:00,
2013-01-19 21:03:00,2.5,-14.8,30.18,NW,313,6.0,12.8,43,0.00,,,-99.99,FreeWX-Wi 1.01,2013-01-20 03:03:00,
2013-01-19 21:13:00,2.3,-15.0,30.18,NW,317,6.0,12.3,43,0.00,,,-99.99,FreeWX-Wi 1.01,2013-01-20 03:13:00,
2013-01-19 21:23:00,2.1,-15.2,30.18,NW,314,6.0,17.0,43,0.00,,,-99.99,FreeWX-Wi 1.01,2013-01-20 03:23:00,
2013-01-19 21:34:00,1.9,-15.3,30.21,NW,311,6.0,8.7,43,0.00,,,-99.99,FreeWX-Wi 1.01,2013-01-20 03:34:00,
2013-01-19 21:44:00,1.8,-15.5,30.21,NW,310,6.0,11.0,43,0.00,,,-99.99,FreeWX-Wi 1.01,2013-01-20 03:44:00,
2013-01-19 21:54:00,1.6,-15.7,30.21,NW,308,6.0,11.0,43,0.00,,,-99.99,FreeWX-Wi 1.01,2013-01-20 03:54:00,
2013-01-19 22:04:00,1.6,-15.7,30.21,NW,313,6.0,17.4,43,0.00,,,-99.99,FreeWX-Wi 1.01,2013-01-20 04:04:00,
2013-01-19 22:14:00,1.4,-15.9,30.21,NW,310,6.0,10.5,43,0.00,,,-99.99,FreeWX-Wi 1.01,2013-01-20 04:14:00,
2013-01-19 22:24:00,1.0,-16.2,30.21,NW,311,6.0,13.2,43,0.00,,,-99.99,FreeWX-Wi 1.01,2013-01-20 04:24:00,
2013-01-19 22:34:00,0.7,-16.4,30.21,NW,314,5.0,9.6,43,0.00,,,-99.99,FreeWX-Wi 1.01,2013-01-20 04:34:00,
2013-01-19 22:44:00,0.5,-16.6,30.21,NW,316,5.0,9.6,43,0.00,,,-99.99,FreeWX-Wi 1.01,2013-01-20 04:44:00,
2013-01-19 22:54:00,0.3,-16.8,30.21,NW,317,4.0,8.3,43,0.00,,,-99.99,FreeWX-Wi 1.01,2013-01-20 04:54:00,
2013-01-19 23:04:00,0.1,-17.0,30.21,NW,314,5.0,10.5,43,0.00,,,-99.99,FreeWX-Wi 1.01,2013-01-20 05:04:00,
2013-01-19 23:14:00,0.0,-17.1,30.21,NW,309,4.0,7.6,43,0.00,,,-99.99,FreeWX-Wi 1.01,2013-01-20 05:14:00,
2013-01-19 23:24:00,0.0,-17.1,30.21,NW,311,5.0,8.3,43,0.00,,,-99.99,FreeWX-Wi 1.01,2013-01-20 05:24:00,
2013-01-19 23:34:00,0.0,-17.1,30.21,NW,312,5.0,10.5,43,0.00,,,-99.99,FreeWX-Wi 1.01,2013-01-20 05:34:00,
2013-01-19 23:44:00,0.0,-17.1,30.24,NW,309,5.0,11.4,43,0.00,,,-99.99,FreeWX-Wi 1.01,2013-01-20 05:44:00,
2013-01-19 23:54:00,-0.2,-17.3,30.24,WNW,302,5.0,8.7,43,0.00,,,-99.99,FreeWX-Wi 1.01,2013-01-20 05:54:00,